KTOI

Troy Municipal at N Kenneth Campbell Field Airport

Troy, Alabama, USA
METAR KTOI 182153Z AUTO 33004KT 10SM CLR 33/21 A3008 RMK AO2 LTG DSNT SE SLP179 T03280211
Observed Flight Rules
Jun-18 @ 21:53 UTC (56 minutes ago) Visual Flight Rules
Wind Visibility Clouds
330° at 4 knots 10 miles
  • Clear skies
Temperatures Readings
Current 33°C / 91°F
Dewpoint 21°C / 70°F
Humidity 49%
Altimeter 30.08" Hg
Pressure 1017.9 hPa
Elevation 118
METAR KTOI 182153Z AUTO 33004KT 10SM CLR 33/21 A3008 RMK AO2 LTG DSNT SE SLP179 T03280211
Observed Flight Rules
Jun-18 @ 21:53 UTC
(56 minutes ago)
VFR
Wind Visibility
330° at 4 knots 10 miles
Clouds
  • Clear skies
Temperature Dewpoint
33°C / 91°F 21°C / 70°F
Humidity Altimeter Pressure
49% 30.08" Hg 1017.9 hPa